createdAt,value
2023-02-02T00:01:58.683Z,2.20
2023-02-02T00:04:34.496Z,5.93
2023-02-02T00:07:02.221Z,2.20
2023-02-02T00:09:30.923Z,2.17
2023-02-02T00:11:59.220Z,1.60
2023-02-02T00:14:26.061Z,2.30
2023-02-02T00:16:53.706Z,1.97
2023-02-02T00:19:26.854Z,1.93
2023-02-02T00:21:54.323Z,1.83
2023-02-02T00:24:21.608Z,1.30
2023-02-02T00:26:53.378Z,1.70
2023-02-02T00:29:22.775Z,2.30
2023-02-02T00:31:49.233Z,2.13
2023-02-02T00:34:16.870Z,1.80
2023-02-02T00:36:44.188Z,1.80
2023-02-02T00:39:16.002Z,1.43
2023-02-02T00:41:42.561Z,1.60
2023-02-02T00:44:27.643Z,1.47
2023-02-02T00:46:53.986Z,1.57
2023-02-02T00:49:20.966Z,1.27
2023-02-02T00:51:47.080Z,1.50
2023-02-02T00:54:13.822Z,1.47
2023-02-02T00:56:40.838Z,1.60
2023-02-02T00:59:07.320Z,1.47
2023-02-02T01:01:33.828Z,2.20
2023-02-02T01:04:01.114Z,2.40
2023-02-02T01:06:27.414Z,1.47
2023-02-02T01:08:53.905Z,1.73
2023-02-02T01:11:20.535Z,2.27
2023-02-02T01:13:47.161Z,1.80
2023-02-02T01:16:13.640Z,1.70
2023-02-02T01:18:40.108Z,1.40
2023-02-02T01:21:09.541Z,1.70
2023-02-02T01:23:37.266Z,1.43
2023-02-02T01:26:06.046Z,1.50
2023-02-02T01:28:33.323Z,1.70
2023-02-02T01:31:08.522Z,2.00
2023-02-02T01:33:35.685Z,2.10
2023-02-02T01:36:06.276Z,1.67
2023-02-02T01:38:33.575Z,2.60
2023-02-02T01:41:00.466Z,1.60
2023-02-02T01:43:43.390Z,2.03
2023-02-02T01:46:14.757Z,1.40
2023-02-02T01:48:47.214Z,1.43
2023-02-02T01:51:18.411Z,1.50
2023-02-02T01:53:47.908Z,2.47
2023-02-02T01:56:20.841Z,1.40
2023-02-02T01:58:47.631Z,1.70
2023-02-02T02:01:14.168Z,1.87
2023-02-02T02:03:42.470Z,1.33
2023-02-02T02:06:18.980Z,1.27
2023-02-02T02:08:53.956Z,1.40
2023-02-02T02:11:21.732Z,1.50
2023-02-02T02:14:08.372Z,1.57
2023-02-02T02:16:49.679Z,1.27
2023-02-02T02:19:22.622Z,1.43
2023-02-02T02:22:12.203Z,0.90
2023-02-02T02:25:23.007Z,0.93
2023-02-02T02:28:11.757Z,0.90
2023-02-02T02:30:47.532Z,1.13
2023-02-02T02:33:19.306Z,1.50
2023-02-02T02:36:01.890Z,1.27
2023-02-02T02:38:42.184Z,1.30
2023-02-02T02:41:18.629Z,1.80
2023-02-02T02:43:54.163Z,1.30
2023-02-02T02:46:22.460Z,0.97
2023-02-02T02:48:49.707Z,1.67
2023-02-02T02:51:35.119Z,1.33
2023-02-02T02:54:02.277Z,1.30
2023-02-02T02:56:54.322Z,1.13
2023-02-02T02:59:32.937Z,1.43
2023-02-02T03:02:44.081Z,1.40
2023-02-02T03:05:20.171Z,1.57
2023-02-02T03:07:54.990Z,1.37
2023-02-02T03:10:27.257Z,1.03
2023-02-02T03:12:54.605Z,1.10
2023-02-02T03:15:20.940Z,1.73
2023-02-02T03:17:50.042Z,1.10
2023-02-02T03:20:16.968Z,1.30
2023-02-02T03:22:43.492Z,1.40
2023-02-02T03:25:13.177Z,1.40
2023-02-02T03:27:39.813Z,1.30
2023-02-02T03:30:09.877Z,1.43
2023-02-02T03:32:37.187Z,1.40
2023-02-02T03:35:03.897Z,1.60
2023-02-02T03:37:30.537Z,1.63
2023-02-02T03:39:56.660Z,1.27
2023-02-02T03:42:23.147Z,1.83
2023-02-02T03:44:49.256Z,1.30
2023-02-02T03:47:15.703Z,1.10
2023-02-02T03:49:41.816Z,1.17
2023-02-02T03:52:08.355Z,1.20
2023-02-02T03:54:34.936Z,1.40
2023-02-02T03:57:01.397Z,1.53
2023-02-02T03:59:27.665Z,1.93
2023-02-02T04:01:54.138Z,1.50
2023-02-02T04:04:20.219Z,1.20
2023-02-02T04:06:46.684Z,1.50
2023-02-02T04:09:12.820Z,1.57
2023-02-02T04:11:40.086Z,1.27
2023-02-02T04:14:06.485Z,1.20
2023-02-02T04:16:36.439Z,1.30
2023-02-02T04:19:05.709Z,0.80
2023-02-02T04:21:32.118Z,1.20
2023-02-02T04:23:58.932Z,1.40
2023-02-02T04:26:26.259Z,1.27
2023-02-02T04:28:52.861Z,1.67
2023-02-02T04:31:19.419Z,1.33
2023-02-02T04:33:45.595Z,1.30
2023-02-02T04:36:12.380Z,1.23
2023-02-02T04:38:38.578Z,1.40
2023-02-02T04:41:11.111Z,0.90
2023-02-02T04:43:38.207Z,1.30
2023-02-02T04:46:04.819Z,0.90
2023-02-02T04:48:31.230Z,1.00
2023-02-02T04:51:06.702Z,1.40
2023-02-02T04:53:33.205Z,1.00
2023-02-02T04:56:14.094Z,1.00
2023-02-02T04:58:40.741Z,0.97
2023-02-02T05:01:14.253Z,0.93
2023-02-02T05:03:40.481Z,1.00
2023-02-02T05:06:07.742Z,1.27
2023-02-02T05:08:35.103Z,0.80
2023-02-02T05:11:09.805Z,0.70
2023-02-02T05:13:36.105Z,0.97
2023-02-02T05:16:02.682Z,0.83
2023-02-02T05:18:30.839Z,0.80
2023-02-02T05:21:01.651Z,0.70
2023-02-02T05:23:28.567Z,0.77
2023-02-02T05:25:55.549Z,0.60
2023-02-02T05:28:22.885Z,0.50
2023-02-02T05:30:49.816Z,0.70
2023-02-02T05:33:19.928Z,0.83
2023-02-02T05:35:49.496Z,0.80
2023-02-02T05:38:16.227Z,0.83
2023-02-02T05:40:42.780Z,1.00
2023-02-02T05:43:09.272Z,0.90
2023-02-02T05:45:35.710Z,0.70
2023-02-02T05:48:01.995Z,1.10
2023-02-02T05:50:28.550Z,1.20
2023-02-02T05:53:01.908Z,0.80
2023-02-02T05:55:28.425Z,0.93
2023-02-02T05:57:54.931Z,0.90
2023-02-02T06:00:21.848Z,0.70
2023-02-02T06:02:48.072Z,1.00
2023-02-02T06:05:14.770Z,0.83
2023-02-02T06:07:41.008Z,0.93
2023-02-02T06:10:07.779Z,0.90
2023-02-02T06:12:33.976Z,1.20
2023-02-02T06:15:00.456Z,0.97
2023-02-02T06:17:26.639Z,1.37
2023-02-02T06:19:53.178Z,1.03
2023-02-02T06:22:19.340Z,1.07
2023-02-02T06:24:45.903Z,0.77
2023-02-02T06:27:12.107Z,1.00
2023-02-02T06:29:38.509Z,1.20
2023-02-02T06:32:04.784Z,0.87
2023-02-02T06:34:31.559Z,1.53
2023-02-02T06:36:57.701Z,1.07
2023-02-02T06:39:24.245Z,0.90
2023-02-02T06:41:51.320Z,0.93
2023-02-02T06:44:18.963Z,0.80
2023-02-02T06:46:45.171Z,1.23
2023-02-02T06:49:11.786Z,1.20
2023-02-02T06:51:38.703Z,0.97
2023-02-02T06:54:05.242Z,1.33
2023-02-02T06:56:31.500Z,1.20
2023-02-02T06:58:57.945Z,1.00
2023-02-02T07:01:24.122Z,1.00
2023-02-02T07:03:51.312Z,1.10
2023-02-02T07:06:27.101Z,0.90
2023-02-02T07:09:01.712Z,1.10
2023-02-02T07:11:36.681Z,1.13
2023-02-02T07:14:04.983Z,1.03
2023-02-02T07:16:31.715Z,1.10
2023-02-02T07:18:58.141Z,0.90
2023-02-02T07:21:28.592Z,1.10
2023-02-02T07:23:55.302Z,1.30
2023-02-02T07:26:21.700Z,1.20
2023-02-02T07:28:48.280Z,1.40
2023-02-02T07:31:23.062Z,1.30
2023-02-02T07:33:50.388Z,1.00
2023-02-02T07:36:19.265Z,0.93
2023-02-02T07:38:47.688Z,1.00
2023-02-02T07:41:14.691Z,0.90
2023-02-02T07:43:41.508Z,0.83
2023-02-02T07:46:09.457Z,0.63
2023-02-02T07:48:36.858Z,0.80
2023-02-02T07:51:09.443Z,1.10
2023-02-02T07:53:36.160Z,0.90
2023-02-02T07:56:14.265Z,1.03
2023-02-02T07:58:41.591Z,0.77
2023-02-02T08:01:10.442Z,0.90
2023-02-02T08:03:37.975Z,1.10
2023-02-02T08:06:14.733Z,1.00
2023-02-02T08:08:41.329Z,1.00
2023-02-02T08:11:10.206Z,0.90
2023-02-02T08:13:37.071Z,1.00
2023-02-02T08:16:03.712Z,1.07
2023-02-02T08:18:30.339Z,0.87
2023-02-02T08:21:01.053Z,0.80
2023-02-02T08:23:28.710Z,0.80
2023-02-02T08:26:05.536Z,1.00
2023-02-02T08:28:32.020Z,1.10
2023-02-02T08:31:07.915Z,1.10
2023-02-02T08:33:34.403Z,1.00
2023-02-02T08:36:00.773Z,1.30
2023-02-02T08:38:32.768Z,1.53
2023-02-02T08:41:07.240Z,1.73
2023-02-02T08:43:34.000Z,1.20
2023-02-02T08:46:12.912Z,1.30
2023-02-02T08:48:40.086Z,1.20
2023-02-02T08:51:09.466Z,1.30
2023-02-02T08:53:35.691Z,1.17
2023-02-02T08:56:08.717Z,1.10
2023-02-02T08:58:35.082Z,0.93
2023-02-02T09:01:31.760Z,1.03
2023-02-02T09:04:05.558Z,1.33
2023-02-02T09:06:37.908Z,0.90
2023-02-02T09:09:06.952Z,1.53
2023-02-02T09:11:34.910Z,1.73
2023-02-02T09:14:02.377Z,0.87
2023-02-02T09:16:29.322Z,1.03
2023-02-02T09:18:56.253Z,1.00
2023-02-02T09:21:23.283Z,1.20
2023-02-02T09:23:52.491Z,1.10
2023-02-02T09:26:27.764Z,1.10
2023-02-02T09:29:03.684Z,1.03
2023-02-02T09:31:34.375Z,0.93
2023-02-02T09:34:06.858Z,0.93
2023-02-02T09:36:34.491Z,1.13
2023-02-02T09:39:01.955Z,1.40
2023-02-02T09:41:38.116Z,1.50
2023-02-02T09:44:23.132Z,1.20
2023-02-02T09:46:58.988Z,1.20
2023-02-02T09:49:47.863Z,1.30
2023-02-02T09:52:25.225Z,1.07
2023-02-02T09:54:57.776Z,1.30
2023-02-02T09:57:41.016Z,1.27
2023-02-02T10:00:25.985Z,1.17
2023-02-02T10:02:59.466Z,1.27
2023-02-02T10:05:31.566Z,0.83
2023-02-02T10:08:02.580Z,1.20
2023-02-02T10:10:38.950Z,1.17
2023-02-02T10:13:13.329Z,1.30
2023-02-02T10:16:01.490Z,1.00
2023-02-02T10:18:56.685Z,1.10
2023-02-02T10:21:37.244Z,1.10
2023-02-02T10:24:04.228Z,1.30
2023-02-02T10:26:38.124Z,1.37
2023-02-02T10:29:14.025Z,1.10
2023-02-02T10:31:46.292Z,1.17
2023-02-02T10:34:15.430Z,1.07
2023-02-02T10:37:32.743Z,1.03
2023-02-02T10:40:14.231Z,1.10
2023-02-02T10:43:23.697Z,0.93
2023-02-02T10:45:51.612Z,1.40
2023-02-02T10:48:31.990Z,1.30
2023-02-02T10:51:00.758Z,1.27
2023-02-02T10:53:29.556Z,2.07
2023-02-02T10:56:02.320Z,1.20
2023-02-02T10:58:35.476Z,1.37
2023-02-02T11:01:04.016Z,1.50
2023-02-02T11:03:34.129Z,1.73
2023-02-02T11:06:21.730Z,1.87
2023-02-02T11:08:55.992Z,2.10
2023-02-02T11:11:30.072Z,1.47
2023-02-02T11:14:12.533Z,1.63
2023-02-02T11:16:44.222Z,1.53
2023-02-02T11:19:17.348Z,1.77
2023-02-02T11:21:49.827Z,1.90
2023-02-02T11:24:44.257Z,1.77
2023-02-02T11:27:20.155Z,1.83
2023-02-02T11:29:52.659Z,1.70
2023-02-02T11:32:28.274Z,1.80
2023-02-02T11:35:03.913Z,1.60
2023-02-02T11:37:32.860Z,1.83
2023-02-02T11:40:30.406Z,1.67
2023-02-02T11:42:59.933Z,1.57
2023-02-02T11:45:38.746Z,1.37
2023-02-02T11:48:27.549Z,1.63
2023-02-02T11:50:56.951Z,1.20
2023-02-02T11:53:26.686Z,1.73
2023-02-02T11:55:55.294Z,1.60
2023-02-02T11:58:27.302Z,1.87
2023-02-02T12:01:02.983Z,1.50
2023-02-02T12:03:36.518Z,1.67
2023-02-02T12:06:21.102Z,1.40
2023-02-02T12:08:48.058Z,1.73
2023-02-02T12:11:32.564Z,1.33
2023-02-02T12:14:31.192Z,1.53
2023-02-02T12:17:09.845Z,1.40
2023-02-02T12:20:00.304Z,1.80
2023-02-02T12:22:41.778Z,1.00
2023-02-02T12:25:28.720Z,1.43
2023-02-02T12:28:26.903Z,1.20
2023-02-02T12:31:04.046Z,1.30
2023-02-02T12:33:43.507Z,1.30
2023-02-02T12:36:37.417Z,1.20
2023-02-02T12:39:37.367Z,1.70
2023-02-02T12:42:32.505Z,1.17
2023-02-02T12:45:26.845Z,0.90
2023-02-02T12:52:56.709Z,0.70
2023-02-02T12:55:51.593Z,0.90
2023-02-02T12:58:32.169Z,1.10
2023-02-02T13:01:06.906Z,1.27
2023-02-02T13:03:51.516Z,1.20
2023-02-02T13:07:03.774Z,0.80
2023-02-02T13:09:34.123Z,1.07
2023-02-02T13:12:07.589Z,1.10
2023-02-02T13:14:44.740Z,1.07
2023-02-02T13:17:14.233Z,1.10
2023-02-02T13:19:53.416Z,1.20
2023-02-02T13:22:28.607Z,1.13
2023-02-02T13:25:00.127Z,0.90
2023-02-02T13:27:29.645Z,1.30
2023-02-02T13:30:02.633Z,1.10
2023-02-02T13:32:33.902Z,0.90
2023-02-02T13:35:24.291Z,1.20
2023-02-02T13:38:00.358Z,0.90
2023-02-02T13:40:40.688Z,1.10
2023-02-02T13:43:39.117Z,1.10
2023-02-02T13:46:19.162Z,1.00
2023-02-02T13:48:51.811Z,1.20
2023-02-02T13:51:41.617Z,1.00
2023-02-02T13:54:46.909Z,0.93
2023-02-02T14:27:18.076Z,1.10
2023-02-02T14:29:46.778Z,1.10
2023-02-02T14:32:28.666Z,1.20
2023-02-02T14:35:23.967Z,1.10
2023-02-02T14:37:58.346Z,1.50
2023-02-02T14:40:47.040Z,1.30
2023-02-02T14:43:49.040Z,1.27
2023-02-02T14:46:23.263Z,1.47
2023-02-02T14:48:58.616Z,1.57
2023-02-02T14:51:30.601Z,1.10
2023-02-02T14:54:01.383Z,0.80
2023-02-02T14:56:46.336Z,0.80
2023-02-02T14:59:19.693Z,0.80
2023-02-02T15:01:58.861Z,0.93
2023-02-02T15:04:27.152Z,0.90
2023-02-02T15:06:54.886Z,1.20
2023-02-02T15:09:33.008Z,1.33
2023-02-02T15:12:03.184Z,1.70
2023-02-02T15:14:51.512Z,1.33
2023-02-02T15:17:37.103Z,1.70
2023-02-02T15:20:26.190Z,2.00
2023-02-02T15:23:07.377Z,2.00
2023-02-02T15:25:42.134Z,1.97
2023-02-02T15:28:21.209Z,2.00
2023-02-02T15:31:02.065Z,1.80
2023-02-02T15:33:36.213Z,1.67
2023-02-02T15:36:11.832Z,2.10
2023-02-02T15:38:41.132Z,2.20
2023-02-02T15:41:20.871Z,2.50
2023-02-02T15:43:47.859Z,2.20
2023-02-02T15:46:25.613Z,1.70
2023-02-02T15:49:31.427Z,2.20
2023-02-02T15:52:10.178Z,1.73
2023-02-02T15:54:39.951Z,2.10
2023-02-02T15:57:26.603Z,2.07
2023-02-02T15:59:53.634Z,2.00
2023-02-02T16:02:27.012Z,2.20
2023-02-02T16:04:53.763Z,2.00
2023-02-02T16:07:35.318Z,1.70
2023-02-02T16:10:07.075Z,1.90
2023-02-02T16:12:34.517Z,1.50
2023-02-02T16:15:01.389Z,1.70
2023-02-02T16:17:32.580Z,1.70
2023-02-02T16:20:12.453Z,2.03
2023-02-02T16:22:39.951Z,1.90
2023-02-02T16:25:14.831Z,1.80
2023-02-02T16:27:45.507Z,1.80
2023-02-02T16:30:28.777Z,1.90
2023-02-02T16:32:55.801Z,1.50
2023-02-02T16:35:37.773Z,1.50
2023-02-02T16:38:22.902Z,1.80
2023-02-02T16:41:03.119Z,2.00
2023-02-02T16:43:30.208Z,1.83
2023-02-02T16:46:06.326Z,1.70
2023-02-02T16:48:32.818Z,1.70
2023-02-02T16:51:14.877Z,1.87
2023-02-02T16:53:48.168Z,1.63
2023-02-02T16:56:35.270Z,1.47
2023-02-02T16:59:13.367Z,1.40
2023-02-02T17:01:43.928Z,1.40
2023-02-02T17:04:18.977Z,1.03
2023-02-02T17:06:52.778Z,1.10
2023-02-02T17:09:35.331Z,1.57
2023-02-02T17:12:07.339Z,1.23
2023-02-02T17:14:36.694Z,1.10
2023-02-02T17:17:05.843Z,1.20
2023-02-02T17:19:32.559Z,1.57
2023-02-02T17:22:04.484Z,1.60
2023-02-02T17:24:32.244Z,1.20
2023-02-02T17:27:00.025Z,1.17
2023-02-02T17:29:26.823Z,0.90
2023-02-02T17:31:53.824Z,1.27
2023-02-02T17:34:20.599Z,1.10
2023-02-02T17:36:47.496Z,1.20
2023-02-02T17:39:14.061Z,0.90
2023-02-02T17:41:41.576Z,0.93
2023-02-02T17:44:09.364Z,1.23
2023-02-02T17:46:38.326Z,1.27
2023-02-02T17:49:06.347Z,1.50
2023-02-02T17:51:40.413Z,1.63
2023-02-02T17:54:12.027Z,1.50
2023-02-02T17:56:39.963Z,2.10
2023-02-02T17:59:06.503Z,2.47
2023-02-02T18:01:39.143Z,2.60
2023-02-02T18:04:06.038Z,2.70
2023-02-02T18:06:33.179Z,2.70
2023-02-02T18:08:59.831Z,2.57
2023-02-02T18:11:26.689Z,2.50
2023-02-02T18:13:53.001Z,2.03
2023-02-02T18:16:20.755Z,1.60
2023-02-02T18:18:47.249Z,1.70
2023-02-02T18:21:13.928Z,2.17
2023-02-02T18:23:40.391Z,1.80
2023-02-02T18:26:23.966Z,2.00
2023-02-02T18:28:50.629Z,2.00
2023-02-02T18:31:19.987Z,2.20
2023-02-02T18:33:46.811Z,2.37
2023-02-02T18:36:18.169Z,2.27
2023-02-02T18:38:45.817Z,2.70
2023-02-02T18:41:13.680Z,2.70
2023-02-02T18:43:40.248Z,2.57
2023-02-02T18:46:10.593Z,2.40
2023-02-02T18:48:37.444Z,1.80
2023-02-02T18:51:12.581Z,1.40
2023-02-02T18:53:38.894Z,1.00
2023-02-02T18:56:07.868Z,1.07
2023-02-02T18:58:35.277Z,1.10
2023-02-02T19:01:14.793Z,1.00
2023-02-02T19:03:42.105Z,1.07
2023-02-02T19:06:27.662Z,1.23
2023-02-02T19:08:56.129Z,1.00
2023-02-02T19:11:26.141Z,1.00
2023-02-02T19:13:53.146Z,1.37
2023-02-02T19:16:27.190Z,1.07
2023-02-02T19:19:00.027Z,1.20
2023-02-02T19:21:32.896Z,1.00
2023-02-02T19:23:59.883Z,1.00
2023-02-02T19:26:27.483Z,1.23
2023-02-02T19:29:01.940Z,1.13
2023-02-02T19:31:28.936Z,1.00
2023-02-02T19:33:56.024Z,1.30
2023-02-02T19:36:27.197Z,1.70
2023-02-02T19:39:30.069Z,1.40
2023-02-02T19:41:59.827Z,1.53
2023-02-02T19:44:30.962Z,1.70
2023-02-02T19:46:59.369Z,2.17
2023-02-02T19:49:35.473Z,4.40
2023-02-02T19:52:03.943Z,5.73
2023-02-02T19:54:34.986Z,5.40
2023-02-02T19:57:16.620Z,3.63
2023-02-02T19:59:46.673Z,6.53
2023-02-02T20:02:51.236Z,10.87
2023-02-02T20:05:31.932Z,9.77
2023-02-02T20:08:04.838Z,13.47
2023-02-02T20:10:43.053Z,12.90
2023-02-02T20:13:37.996Z,9.77
2023-02-02T20:16:05.898Z,11.50
2023-02-02T20:18:41.683Z,9.20
2023-02-02T20:21:19.578Z,6.20
2023-02-02T20:23:46.642Z,5.13
2023-02-02T20:26:34.703Z,4.20
2023-02-02T20:29:36.940Z,3.30
2023-02-02T20:32:05.439Z,3.63
2023-02-02T20:34:39.557Z,2.57
2023-02-02T20:37:11.967Z,3.30
2023-02-02T20:39:47.580Z,2.90
2023-02-02T20:42:16.824Z,3.00
2023-02-02T20:44:43.675Z,3.00
2023-02-02T20:47:10.243Z,2.37
2023-02-02T20:49:37.988Z,2.10
2023-02-02T20:52:09.911Z,2.47
2023-02-02T20:54:38.511Z,2.20
2023-02-02T20:57:05.970Z,2.20
2023-02-02T20:59:32.880Z,2.73
2023-02-02T21:02:01.122Z,2.80
2023-02-02T21:04:28.337Z,2.33
2023-02-02T21:06:54.891Z,2.20
2023-02-02T21:09:22.100Z,2.73
2023-02-02T21:11:48.427Z,2.60
2023-02-02T21:14:15.589Z,2.97
2023-02-02T21:16:42.184Z,3.63
2023-02-02T21:19:09.475Z,3.40
2023-02-02T21:21:36.144Z,4.47
2023-02-02T21:24:03.802Z,4.97
2023-02-02T21:26:31.054Z,4.60
2023-02-02T21:28:58.152Z,7.20
2023-02-02T21:31:25.325Z,3.80
2023-02-02T21:33:52.520Z,3.33
2023-02-02T21:36:33.094Z,3.10
2023-02-02T21:39:14.614Z,2.73
2023-02-02T21:41:40.997Z,2.83
2023-02-02T21:44:12.876Z,7.40
2023-02-02T21:46:39.850Z,29.47
2023-02-02T21:49:17.450Z,15.27
2023-02-02T21:51:43.963Z,18.53
2023-02-02T21:54:19.694Z,12.40
2023-02-02T21:56:46.529Z,9.00
2023-02-02T21:59:22.783Z,7.80
2023-02-02T22:01:51.206Z,8.53
2023-02-02T22:04:19.494Z,6.33
2023-02-02T22:06:49.945Z,6.53
2023-02-02T22:09:22.368Z,7.00
2023-02-02T22:11:53.980Z,6.50
2023-02-02T22:14:21.079Z,6.40
2023-02-02T22:16:51.705Z,5.97
2023-02-02T22:19:38.551Z,6.17
2023-02-02T22:22:08.162Z,5.53
2023-02-02T22:24:35.857Z,5.53
2023-02-02T22:27:02.539Z,5.60
2023-02-02T22:29:33.820Z,5.40
2023-02-02T22:32:00.164Z,6.27
2023-02-02T22:34:26.815Z,9.97
2023-02-02T22:36:53.183Z,16.10
2023-02-02T22:39:19.670Z,17.70
2023-02-02T22:41:45.772Z,10.27
2023-02-02T22:44:12.201Z,6.27
2023-02-02T22:46:38.430Z,4.73
2023-02-02T22:49:04.882Z,4.40
2023-02-02T22:51:31.103Z,4.93
2023-02-02T22:53:57.592Z,4.40
2023-02-02T22:56:23.817Z,4.30
2023-02-02T22:58:50.183Z,4.17
2023-02-02T23:01:16.565Z,5.27
2023-02-02T23:03:43.049Z,7.03
2023-02-02T23:06:09.311Z,5.60
2023-02-02T23:08:36.062Z,6.87
2023-02-02T23:11:02.278Z,8.07
2023-02-02T23:13:28.974Z,6.10
2023-02-02T23:15:56.291Z,6.00
2023-02-02T23:18:22.811Z,6.23
2023-02-02T23:20:49.745Z,5.83
2023-02-02T23:23:16.332Z,6.27
2023-02-02T23:25:42.428Z,6.37
2023-02-02T23:28:09.819Z,6.53
2023-02-02T23:30:37.173Z,13.47
2023-02-02T23:33:03.750Z,15.03
2023-02-02T23:35:29.906Z,18.77
2023-02-02T23:37:56.428Z,14.13
2023-02-02T23:40:22.655Z,14.50
2023-02-02T23:42:49.158Z,11.57
2023-02-02T23:45:16.416Z,10.90
2023-02-02T23:47:43.437Z,10.57
2023-02-02T23:50:10.475Z,9.67
2023-02-02T23:52:38.047Z,10.07
2023-02-02T23:55:05.151Z,9.83
2023-02-02T23:57:32.979Z,9.60
2023-02-02T23:59:59.148Z,8.50
